createdAt,value
2022-08-11T00:03:21.377Z,1.70
2022-08-11T00:05:57.051Z,1.67
2022-08-11T00:08:33.110Z,1.50
2022-08-11T00:11:09.420Z,1.20
2022-08-11T00:13:45.580Z,1.52
2022-08-11T00:16:21.911Z,1.60
2022-08-11T00:18:57.820Z,1.57
2022-08-11T00:21:54.762Z,1.40
2022-08-11T00:24:08.720Z,1.75
2022-08-11T00:26:42.083Z,1.50
2022-08-11T00:29:15.764Z,1.72
2022-08-11T00:31:51.985Z,1.55
2022-08-11T00:34:28.935Z,1.17
2022-08-11T00:37:05.189Z,1.47
2022-08-11T00:39:46.882Z,1.55
2022-08-11T00:42:24.031Z,1.70
2022-08-11T00:45:06.612Z,1.30
2022-08-11T00:47:53.910Z,1.45
2022-08-11T00:50:32.444Z,1.60
2022-08-11T00:53:29.036Z,1.60
2022-08-11T00:56:45.680Z,1.62
2022-08-11T01:02:10.450Z,1.30
2022-08-11T01:05:29.713Z,1.35
2022-08-11T01:08:32.820Z,1.62
2022-08-11T01:12:06.460Z,1.37
2022-08-11T01:18:48.121Z,1.55
2022-08-11T01:22:12.520Z,1.77
2022-08-11T01:25:17.193Z,1.60
2022-08-11T01:28:35.271Z,1.90
2022-08-11T01:31:49.089Z,2.10
2022-08-11T01:34:44.018Z,1.60
2022-08-11T01:37:44.651Z,1.80
2022-08-11T01:40:30.571Z,1.70
2022-08-11T01:43:37.834Z,1.98
2022-08-11T01:46:14.822Z,1.55
2022-08-11T01:48:52.743Z,1.40
2022-08-11T01:54:04.868Z,1.70
2022-08-11T01:56:58.364Z,1.50
2022-08-11T01:59:35.807Z,1.80
2022-08-11T02:02:54.247Z,2.00
2022-08-11T02:05:36.081Z,2.33
2022-08-11T02:08:17.660Z,1.80
2022-08-11T02:11:12.937Z,1.85
2022-08-11T02:13:55.147Z,1.80
2022-08-11T02:16:37.193Z,2.08
2022-08-11T02:19:32.395Z,2.25
2022-08-11T02:22:26.096Z,1.77
2022-08-11T02:25:02.528Z,2.17
2022-08-11T02:30:25.656Z,1.87
2022-08-11T02:33:19.010Z,2.65
2022-08-11T02:36:00.200Z,2.15
2022-08-11T02:38:36.741Z,2.05
2022-08-11T02:41:31.838Z,2.80
2022-08-11T02:44:13.725Z,1.90
2022-08-11T02:50:03.471Z,2.33
2022-08-11T02:55:44.467Z,2.77
2022-08-11T02:58:03.884Z,2.55
2022-08-11T03:00:40.073Z,2.72
2022-08-11T03:03:19.222Z,3.02
2022-08-11T03:05:57.860Z,3.00
2022-08-11T03:08:47.768Z,2.37
2022-08-11T03:12:06.376Z,2.80
2022-08-11T03:17:28.461Z,2.67
2022-08-11T03:20:09.902Z,3.95
2022-08-11T03:22:49.898Z,3.50
2022-08-11T03:25:31.856Z,3.40
2022-08-11T03:30:57.395Z,3.17
2022-08-11T03:33:50.948Z,3.83
2022-08-11T03:36:33.309Z,2.83
2022-08-11T03:39:13.442Z,2.45
2022-08-11T03:42:05.293Z,3.00
2022-08-11T03:47:53.452Z,2.85
2022-08-11T03:50:32.918Z,2.62
2022-08-11T03:53:12.918Z,2.83
2022-08-11T03:56:10.167Z,3.15
2022-08-11T03:59:17.299Z,2.85
2022-08-11T04:02:48.204Z,2.67
2022-08-11T04:06:16.099Z,2.47
2022-08-11T04:09:05.929Z,2.37
2022-08-11T04:15:34.701Z,2.35
2022-08-11T04:18:22.103Z,2.35
2022-08-11T04:21:22.761Z,2.55
2022-08-11T04:28:04.803Z,2.33
2022-08-11T04:30:45.774Z,2.17
2022-08-11T04:33:56.602Z,2.47
2022-08-11T04:37:06.481Z,2.40
2022-08-11T04:39:58.582Z,1.87
2022-08-11T04:43:18.948Z,2.47
2022-08-11T04:46:36.165Z,2.80
2022-08-11T04:52:59.717Z,1.90
2022-08-11T04:56:08.396Z,2.17
2022-08-11T04:59:11.282Z,2.60
2022-08-11T05:01:51.277Z,2.65
2022-08-11T05:08:24.239Z,2.52
2022-08-11T05:11:18.557Z,2.17
2022-08-11T05:14:12.027Z,2.42
2022-08-11T05:17:05.875Z,2.30
2022-08-11T05:19:57.432Z,1.90
2022-08-11T05:22:50.279Z,1.98
2022-08-11T05:26:43.242Z,1.65
2022-08-11T05:31:24.199Z,2.00
2022-08-11T05:34:17.479Z,1.90
2022-08-11T05:37:17.178Z,1.87
2022-08-11T05:39:52.033Z,1.90
2022-08-11T05:42:44.774Z,1.98
2022-08-11T05:45:57.263Z,2.17
2022-08-11T05:48:30.689Z,1.87
2022-08-11T05:51:30.603Z,1.47
2022-08-11T05:56:47.558Z,1.72
2022-08-11T06:06:15.035Z,5.60
2022-08-11T06:09:00.135Z,1.75
2022-08-11T06:11:43.779Z,1.55
2022-08-11T06:14:12.315Z,1.17
2022-08-11T06:16:47.702Z,1.50
2022-08-11T06:19:24.102Z,1.40
2022-08-11T06:21:57.693Z,1.47
2022-08-11T06:24:32.590Z,1.42
2022-08-11T06:27:12.801Z,1.37
2022-08-11T06:29:55.395Z,0.95
2022-08-11T06:32:27.666Z,1.10
2022-08-11T06:35:21.894Z,1.00
2022-08-11T06:38:06.460Z,1.02
2022-08-11T06:40:47.352Z,1.00
2022-08-11T06:43:23.378Z,1.20
2022-08-11T06:46:01.749Z,1.00
2022-08-11T06:48:37.769Z,0.90
2022-08-11T06:51:13.456Z,1.00
2022-08-11T06:53:57.603Z,1.10
2022-08-11T06:56:45.497Z,0.80
2022-08-11T06:59:39.737Z,1.00
2022-08-11T07:02:39.157Z,0.80
2022-08-11T07:05:24.163Z,1.10
2022-08-11T07:09:00.940Z,0.72
2022-08-11T07:12:40.481Z,1.30
2022-08-11T07:16:11.441Z,0.90
2022-08-11T07:18:27.549Z,0.70
2022-08-11T07:22:01.972Z,0.72
2022-08-11T07:24:34.256Z,0.90
2022-08-11T07:27:33.617Z,0.50
2022-08-11T07:30:08.127Z,0.60
2022-08-11T07:32:45.595Z,0.70
2022-08-11T07:35:24.764Z,0.68
2022-08-11T07:38:05.795Z,0.80
2022-08-11T07:40:43.401Z,0.53
2022-08-11T07:43:21.039Z,0.55
2022-08-11T07:46:30.395Z,0.70
2022-08-11T07:52:02.940Z,0.90
2022-08-11T07:54:37.920Z,0.82
2022-08-11T07:57:59.479Z,1.07
2022-08-11T08:00:25.688Z,0.85
2022-08-11T08:03:20.496Z,0.80
2022-08-11T08:06:15.371Z,0.75
2022-08-11T08:09:06.509Z,1.20
2022-08-11T08:12:05.793Z,1.30
2022-08-11T08:15:02.236Z,0.78
2022-08-11T08:18:20.903Z,1.32
2022-08-11T08:20:55.780Z,1.12
2022-08-11T08:23:42.664Z,1.10
2022-08-11T08:29:49.298Z,0.90
2022-08-11T08:32:52.104Z,0.55
2022-08-11T08:35:54.564Z,0.88
2022-08-11T08:38:22.393Z,0.85
2022-08-11T08:40:56.875Z,0.62
2022-08-11T08:43:32.552Z,1.25
2022-08-11T08:46:08.745Z,0.85
2022-08-11T08:48:43.821Z,0.75
2022-08-11T08:51:58.789Z,0.88
2022-08-11T08:56:50.323Z,0.50
2022-08-11T08:59:26.537Z,1.07
2022-08-11T09:02:06.206Z,0.70
2022-08-11T09:04:42.776Z,0.75
2022-08-11T09:07:18.671Z,0.80
2022-08-11T09:10:00.142Z,0.80
2022-08-11T09:12:52.129Z,0.82
2022-08-11T09:15:33.743Z,0.60
2022-08-11T09:18:11.487Z,0.78
2022-08-11T09:24:07.675Z,0.88
2022-08-11T09:27:04.225Z,0.80
2022-08-11T09:29:44.327Z,0.78
2022-08-11T09:32:22.367Z,0.80
2022-08-11T09:34:58.270Z,0.85
2022-08-11T09:37:59.673Z,1.00
2022-08-11T09:40:36.041Z,0.80
2022-08-11T09:43:30.433Z,0.87
2022-08-11T09:46:05.674Z,0.95
2022-08-11T09:48:43.457Z,0.85
2022-08-11T11:14:46.058Z,0.85
2022-08-11T11:17:38.713Z,0.80
2022-08-11T11:22:57.875Z,1.05
2022-08-11T11:25:57.268Z,0.95
2022-08-11T11:28:37.102Z,1.00
2022-08-11T11:31:15.645Z,0.85
2022-08-11T11:34:12.528Z,1.07
2022-08-11T11:39:28.447Z,1.25
2022-08-11T11:42:04.553Z,1.40
2022-08-11T11:44:40.291Z,0.90
2022-08-11T11:47:16.168Z,0.83
2022-08-11T11:49:51.131Z,0.78
2022-08-11T11:52:25.734Z,1.25
2022-08-11T11:55:00.685Z,0.90
2022-08-11T11:57:59.054Z,1.00
2022-08-11T12:00:49.741Z,1.05
2022-08-11T12:03:23.447Z,1.12
2022-08-11T12:05:57.498Z,0.68
2022-08-11T12:08:31.660Z,0.70
2022-08-11T12:11:24.655Z,0.90
2022-08-11T12:14:02.581Z,1.20
2022-08-11T12:16:40.308Z,0.80
2022-08-11T12:22:05.266Z,0.90
2022-08-11T12:25:02.335Z,1.02
2022-08-11T12:27:38.873Z,0.88
2022-08-11T12:30:13.004Z,1.00
2022-08-11T12:32:47.562Z,1.02
2022-08-11T12:35:21.007Z,0.90
2022-08-11T12:38:03.711Z,0.93
2022-08-11T12:41:15.128Z,0.62
2022-08-11T12:43:44.363Z,0.88
2022-08-11T12:46:23.144Z,0.90
2022-08-11T12:49:19.652Z,0.90
2022-08-11T12:52:14.495Z,0.70
2022-08-11T12:54:42.320Z,0.78
2022-08-11T12:57:36.872Z,0.53
2022-08-11T13:00:30.443Z,0.90
2022-08-11T13:03:23.934Z,1.10
2022-08-11T13:05:59.194Z,0.70
2022-08-11T13:08:35.742Z,1.62
2022-08-11T13:14:01.699Z,0.90
2022-08-11T13:16:40.091Z,0.85
2022-08-11T13:19:13.889Z,0.62
2022-08-11T13:21:48.130Z,0.80
2022-08-11T13:24:26.328Z,0.82
2022-08-11T13:27:03.411Z,0.80
2022-08-11T13:29:37.632Z,0.90
2022-08-11T13:32:13.575Z,0.85
2022-08-11T13:34:48.241Z,0.90
2022-08-11T13:38:19.782Z,1.05
2022-08-11T13:39:59.838Z,0.80
2022-08-11T13:42:35.062Z,1.17
2022-08-11T13:45:11.089Z,1.10
2022-08-11T13:47:48.889Z,0.72
2022-08-11T13:50:24.652Z,1.17
2022-08-11T13:52:58.255Z,0.70
2022-08-11T13:55:36.535Z,0.70
2022-08-11T13:58:19.303Z,0.88
2022-08-11T14:00:52.660Z,0.80
2022-08-11T14:06:13.228Z,0.70
2022-08-11T14:08:47.679Z,0.90
2022-08-11T14:12:22.666Z,0.70
2022-08-11T14:14:19.530Z,0.90
2022-08-11T14:19:40.184Z,0.93
2022-08-11T14:22:16.479Z,0.90
2022-08-11T14:24:51.364Z,0.68
2022-08-11T14:28:30.971Z,0.90
2022-08-11T14:30:08.999Z,1.35
2022-08-11T14:32:55.312Z,0.60
2022-08-11T14:35:17.982Z,1.00
2022-08-11T14:37:55.080Z,1.42
2022-08-11T14:40:46.148Z,1.00
2022-08-11T14:44:12.319Z,0.90
2022-08-11T14:49:10.852Z,1.17
2022-08-11T14:51:49.126Z,1.42
2022-08-11T14:54:46.135Z,1.40
2022-08-11T14:57:54.383Z,0.90
2022-08-11T15:03:11.414Z,1.02
2022-08-11T15:05:56.252Z,1.10
2022-08-11T15:08:40.369Z,1.17
2022-08-11T15:11:34.443Z,1.47
2022-08-11T15:14:17.445Z,1.20
2022-08-11T15:17:12.394Z,1.10
2022-08-11T15:20:08.123Z,1.40
2022-08-11T15:23:07.070Z,1.60
2022-08-11T15:25:42.216Z,1.32
